createdAt,value
2022-08-16T00:01:28.897Z,63.02
2022-08-16T00:04:05.224Z,63.28
2022-08-16T00:06:34.350Z,63.18
2022-08-16T00:09:07.918Z,63.24
2022-08-16T00:11:45.147Z,63.49
2022-08-16T00:14:28.965Z,63.39
2022-08-16T00:17:16.223Z,63.32
2022-08-16T00:19:49.188Z,63.51
2022-08-16T00:22:25.439Z,63.56
2022-08-16T00:24:55.479Z,63.75
2022-08-16T00:27:23.486Z,63.69
2022-08-16T00:30:08.820Z,63.69
2022-08-16T00:32:44.157Z,63.97
2022-08-16T00:35:18.689Z,63.79
2022-08-16T00:37:59.332Z,64.02
2022-08-16T00:40:43.940Z,63.88
2022-08-16T00:43:41.046Z,63.94
2022-08-16T00:46:33.672Z,64.05
2022-08-16T00:49:18.818Z,64.14
2022-08-16T00:51:55.059Z,64.11
2022-08-16T00:54:29.559Z,64.17
2022-08-16T00:57:04.949Z,64.25
2022-08-16T00:59:36.851Z,64.25
2022-08-16T01:02:30.285Z,64.48
2022-08-16T01:05:10.724Z,64.52
2022-08-16T01:07:52.159Z,64.48
2022-08-16T01:10:31.955Z,64.50
2022-08-16T01:13:15.185Z,64.61
2022-08-16T01:15:58.227Z,64.54
2022-08-16T01:18:40.659Z,64.72
2022-08-16T01:21:30.347Z,64.68
2022-08-16T01:24:51.599Z,64.79
2022-08-16T01:27:48.460Z,65.01
2022-08-16T01:30:20.193Z,65.01
2022-08-16T01:33:02.766Z,64.97
2022-08-16T01:35:52.251Z,65.12
2022-08-16T01:38:36.471Z,65.10
2022-08-16T01:41:19.893Z,65.13
2022-08-16T01:43:55.971Z,65.21
2022-08-16T01:46:44.397Z,65.29
2022-08-16T01:49:18.847Z,65.24
2022-08-16T01:52:03.692Z,65.34
2022-08-16T01:54:32.561Z,65.41
2022-08-16T01:57:09.127Z,65.33
2022-08-16T01:59:44.052Z,65.50
2022-08-16T02:02:27.114Z,65.47
2022-08-16T02:05:00.545Z,65.58
2022-08-16T02:07:28.741Z,65.67
2022-08-16T02:10:05.253Z,65.70
2022-08-16T02:12:43.573Z,65.75
2022-08-16T02:15:27.460Z,65.83
2022-08-16T02:18:01.282Z,65.82
2022-08-16T02:20:39.492Z,65.96
2022-08-16T02:23:17.195Z,65.94
2022-08-16T02:25:51.674Z,65.97
2022-08-16T02:28:27.437Z,66.06
2022-08-16T02:30:59.856Z,66.10
2022-08-16T02:33:44.636Z,66.11
2022-08-16T02:36:47.605Z,66.22
2022-08-16T02:39:10.330Z,66.28
2022-08-16T02:41:41.174Z,66.28
2022-08-16T02:44:13.781Z,66.27
2022-08-16T02:46:50.670Z,66.31
2022-08-16T02:49:58.603Z,66.29
2022-08-16T02:52:24.371Z,66.34
2022-08-16T02:54:56.811Z,66.42
2022-08-16T02:57:27.734Z,66.45
2022-08-16T02:59:56.209Z,66.49
2022-08-16T03:02:32.085Z,66.42
2022-08-16T03:05:09.561Z,66.55
2022-08-16T03:07:38.738Z,66.58
2022-08-16T03:10:12.546Z,66.62
2022-08-16T03:12:56.275Z,66.67
2022-08-16T03:15:26.102Z,66.71
2022-08-16T03:17:58.824Z,66.73
2022-08-16T03:20:32.260Z,66.68
2022-08-16T03:23:04.903Z,66.84
2022-08-16T03:25:41.146Z,66.87
2022-08-16T03:28:17.138Z,66.92
2022-08-16T03:30:48.754Z,66.96
2022-08-16T03:33:19.942Z,66.98
2022-08-16T03:35:47.909Z,67.03
2022-08-16T03:38:34.445Z,67.02
2022-08-16T03:41:17.196Z,67.10
2022-08-16T03:43:56.855Z,67.17
2022-08-16T03:46:48.309Z,67.19
2022-08-16T03:49:20.426Z,67.30
2022-08-16T03:51:54.675Z,67.35
2022-08-16T03:54:22.453Z,67.46
2022-08-16T03:56:56.892Z,67.45
2022-08-16T03:59:32.566Z,67.46
2022-08-16T04:02:01.671Z,67.50
2022-08-16T04:04:36.135Z,67.55
2022-08-16T04:07:07.648Z,67.53
2022-08-16T04:09:38.929Z,67.66
2022-08-16T04:12:54.694Z,67.63
2022-08-16T04:15:02.900Z,67.77
2022-08-16T04:17:39.601Z,67.78
2022-08-16T04:20:23.639Z,67.80
2022-08-16T04:23:00.922Z,67.95
2022-08-16T04:25:31.659Z,67.93
2022-08-16T04:28:29.336Z,67.92
2022-08-16T04:30:47.779Z,68.06
2022-08-16T04:33:16.966Z,68.01
2022-08-16T04:35:49.538Z,68.06
2022-08-16T04:38:21.361Z,68.02
2022-08-16T04:40:50.015Z,68.19
2022-08-16T04:43:21.136Z,68.22
2022-08-16T04:45:55.115Z,68.24
2022-08-16T04:48:34.049Z,68.35
2022-08-16T04:51:07.803Z,68.35
2022-08-16T04:53:42.819Z,68.39
2022-08-16T04:56:11.192Z,68.38
2022-08-16T04:58:46.051Z,68.50
2022-08-16T05:01:20.218Z,68.56
2022-08-16T05:04:00.569Z,68.65
2022-08-16T05:06:42.358Z,68.73
2022-08-16T05:09:23.010Z,68.85
2022-08-16T05:11:51.128Z,68.82
2022-08-16T05:14:42.090Z,68.96
2022-08-16T05:17:11.811Z,68.98
2022-08-16T05:19:39.996Z,69.07
2022-08-16T05:22:17.985Z,69.24
2022-08-16T05:24:54.917Z,69.24
2022-08-16T05:27:26.587Z,69.27
2022-08-16T05:30:02.002Z,69.19
2022-08-16T05:32:45.906Z,69.17
2022-08-16T05:35:19.027Z,69.16
2022-08-16T05:37:55.135Z,69.16
2022-08-16T05:40:24.019Z,69.18
2022-08-16T05:42:57.282Z,69.17
2022-08-16T05:45:29.881Z,69.35
2022-08-16T05:47:59.976Z,69.32
2022-08-16T05:50:34.338Z,69.39
2022-08-16T05:53:05.243Z,69.30
2022-08-16T05:55:40.812Z,69.49
2022-08-16T05:58:31.676Z,69.51
2022-08-16T06:01:03.182Z,69.55
2022-08-16T06:03:34.367Z,69.47
2022-08-16T06:06:02.788Z,69.68
2022-08-16T06:08:42.137Z,69.71
2022-08-16T06:11:18.940Z,69.74
2022-08-16T06:13:47.915Z,69.84
2022-08-16T06:16:21.003Z,69.82
2022-08-16T06:18:48.957Z,69.68
2022-08-16T06:21:23.727Z,69.90
2022-08-16T06:23:57.718Z,69.94
2022-08-16T06:26:34.752Z,69.74
2022-08-16T06:29:07.821Z,69.99
2022-08-16T06:31:49.076Z,69.90
2022-08-16T06:34:54.206Z,69.81
2022-08-16T06:37:11.351Z,69.94
2022-08-16T06:39:49.287Z,69.90
2022-08-16T06:42:20.679Z,70.18
2022-08-16T06:44:52.245Z,70.17
2022-08-16T06:47:19.954Z,70.06
2022-08-16T06:49:53.811Z,69.97
2022-08-16T06:52:57.736Z,69.98
2022-08-16T06:55:15.948Z,70.05
2022-08-16T06:57:43.683Z,69.99
2022-08-16T07:00:24.287Z,70.07
2022-08-16T07:02:59.653Z,70.17
2022-08-16T07:05:41.826Z,70.22
2022-08-16T07:08:13.183Z,70.05
2022-08-16T07:10:45.137Z,70.22
2022-08-16T07:13:26.644Z,70.23
2022-08-16T07:16:15.489Z,70.10
2022-08-16T07:19:01.627Z,70.29
2022-08-16T07:21:45.951Z,70.23
2022-08-16T07:24:30.525Z,70.02
2022-08-16T07:27:00.767Z,70.12
2022-08-16T07:29:32.192Z,69.89
2022-08-16T07:32:07.293Z,70.01
2022-08-16T07:34:48.199Z,69.63
2022-08-16T07:37:23.059Z,69.64
2022-08-16T07:39:55.386Z,69.89
2022-08-16T07:42:28.422Z,69.87
2022-08-16T07:45:10.318Z,69.44
2022-08-16T07:47:38.321Z,69.29
2022-08-16T07:50:57.064Z,68.90
2022-08-16T07:53:05.136Z,68.57
2022-08-16T07:55:45.576Z,68.06
2022-08-16T07:58:34.780Z,67.79
2022-08-16T08:01:10.498Z,68.28
2022-08-16T08:03:48.486Z,68.32
2022-08-16T08:06:31.875Z,67.62
2022-08-16T08:09:04.345Z,67.06
2022-08-16T08:11:37.767Z,67.16
2022-08-16T08:14:06.621Z,66.44
2022-08-16T08:16:38.046Z,65.87
2022-08-16T08:19:13.507Z,66.03
2022-08-16T08:22:01.115Z,66.45
2022-08-16T08:24:38.041Z,65.96
2022-08-16T08:27:09.922Z,65.65
2022-08-16T08:29:42.606Z,65.19
2022-08-16T08:32:57.427Z,64.97
2022-08-16T08:35:05.522Z,64.54
2022-08-16T08:37:54.354Z,64.13
2022-08-16T08:40:30.540Z,63.67
2022-08-16T08:43:11.489Z,63.71
2022-08-16T08:45:48.058Z,63.31
2022-08-16T08:48:33.033Z,63.46
2022-08-16T08:51:10.078Z,62.84
2022-08-16T08:53:43.014Z,62.63
2022-08-16T08:56:23.557Z,62.32
2022-08-16T08:58:58.184Z,61.63
2022-08-16T09:01:36.952Z,61.46
2022-08-16T09:04:17.788Z,61.27
2022-08-16T09:06:45.871Z,60.81
2022-08-16T09:09:16.934Z,60.28
2022-08-16T09:12:03.908Z,60.48
2022-08-16T09:14:49.590Z,59.87
2022-08-16T09:17:45.495Z,59.81
2022-08-16T09:20:17.380Z,59.63
2022-08-16T09:22:54.712Z,59.44
2022-08-16T09:25:34.199Z,59.37
2022-08-16T09:28:10.410Z,59.19
2022-08-16T09:30:44.381Z,59.19
2022-08-16T09:33:21.422Z,58.98
2022-08-16T09:35:54.515Z,58.90
2022-08-16T09:38:32.444Z,58.77
2022-08-16T09:41:14.530Z,58.74
2022-08-16T09:43:58.403Z,58.63
2022-08-16T09:46:45.635Z,58.47
2022-08-16T09:49:20.810Z,58.41
2022-08-16T09:51:55.548Z,58.50
2022-08-16T09:54:32.629Z,58.65
2022-08-16T09:57:04.834Z,58.50
2022-08-16T09:59:38.388Z,58.52
2022-08-16T10:02:27.325Z,58.67
2022-08-16T10:04:58.764Z,58.41
2022-08-16T10:07:44.436Z,58.36
2022-08-16T10:10:19.218Z,58.90
2022-08-16T10:13:16.385Z,58.86
2022-08-16T10:15:55.427Z,58.57
2022-08-16T10:19:02.242Z,58.99
2022-08-16T10:21:11.732Z,59.11
2022-08-16T10:23:40.513Z,58.78
2022-08-16T10:27:17.849Z,58.86
2022-08-16T10:29:06.286Z,59.07
2022-08-16T10:31:45.572Z,59.10
2022-08-16T10:34:31.744Z,59.15
2022-08-16T10:37:03.720Z,59.35
2022-08-16T10:39:41.350Z,59.25
2022-08-16T10:42:13.275Z,59.25
2022-08-16T10:44:54.831Z,59.35
2022-08-16T10:47:22.928Z,59.54
2022-08-16T10:49:51.825Z,59.65
2022-08-16T10:52:20.203Z,59.74
2022-08-16T10:57:35.891Z,59.95
2022-08-16T11:00:21.405Z,59.83
2022-08-16T11:03:03.781Z,59.93
2022-08-16T11:08:35.812Z,60.34
2022-08-16T11:11:12.694Z,60.41
2022-08-16T11:14:05.922Z,60.24
2022-08-16T11:19:23.143Z,60.50
2022-08-16T11:24:43.530Z,60.82
2022-08-16T11:27:23.711Z,60.88
2022-08-16T11:29:55.712Z,60.99
2022-08-16T11:32:31.260Z,61.02
2022-08-16T11:35:14.268Z,61.27
2022-08-16T11:40:47.082Z,61.45
2022-08-16T11:43:28.709Z,61.63
2022-08-16T11:46:01.452Z,61.35
2022-08-16T11:48:48.715Z,61.51
2022-08-16T11:51:16.571Z,61.58
2022-08-16T11:53:44.438Z,61.39
2022-08-16T11:56:14.992Z,61.65
2022-08-16T11:58:43.404Z,61.71
2022-08-16T12:01:29.963Z,61.55
2022-08-16T12:04:09.413Z,61.69
2022-08-16T12:06:41.805Z,61.83
2022-08-16T12:09:10.129Z,61.81
2022-08-16T12:11:40.975Z,61.82
2022-08-16T12:14:11.868Z,62.04
2022-08-16T12:16:48.719Z,62.01
2022-08-16T12:19:35.209Z,61.88
2022-08-16T12:22:18.944Z,61.85
2022-08-16T12:24:51.237Z,62.07
2022-08-16T12:27:23.473Z,62.21
2022-08-16T12:29:58.370Z,62.26
2022-08-16T12:32:37.607Z,62.21
2022-08-16T12:35:22.838Z,62.30
2022-08-16T12:37:56.574Z,61.89
2022-08-16T12:40:32.473Z,62.20
2022-08-16T12:43:13.417Z,62.04
2022-08-16T12:45:49.330Z,62.23
2022-08-16T12:48:42.529Z,61.95
2022-08-16T12:51:19.769Z,62.02
2022-08-16T12:53:58.853Z,62.07
2022-08-16T12:56:33.609Z,62.20
2022-08-16T12:59:15.707Z,62.20
2022-08-16T13:01:55.420Z,62.10
2022-08-16T13:04:34.118Z,62.04
2022-08-16T13:07:08.834Z,61.94
2022-08-16T13:09:47.952Z,62.18
2022-08-16T13:12:19.963Z,62.12
2022-08-16T13:14:51.263Z,62.03
2022-08-16T13:17:29.719Z,62.03
2022-08-16T13:20:08.740Z,61.94
2022-08-16T13:22:46.275Z,61.88
2022-08-16T13:25:21.598Z,61.72
2022-08-16T13:28:02.716Z,61.81
2022-08-16T13:30:52.304Z,61.81
2022-08-16T13:33:29.735Z,61.78
2022-08-16T13:36:07.040Z,61.61
2022-08-16T13:38:49.335Z,61.67
2022-08-16T13:41:19.520Z,61.89
2022-08-16T13:43:57.849Z,61.60
2022-08-16T13:46:30.415Z,61.44
2022-08-16T13:49:03.065Z,61.38
2022-08-16T13:51:32.521Z,61.46
2022-08-16T13:54:04.371Z,61.46
2022-08-16T13:56:40.423Z,61.43
2022-08-16T13:59:20.617Z,61.28
2022-08-16T14:01:56.688Z,61.38
2022-08-16T14:04:35.504Z,61.27
2022-08-16T14:07:11.530Z,61.25
2022-08-16T14:09:44.594Z,61.06
2022-08-16T14:12:28.625Z,61.10
2022-08-16T14:15:02.830Z,61.04
2022-08-16T14:18:17.359Z,60.99
2022-08-16T14:20:23.451Z,60.91
2022-08-16T14:22:52.275Z,60.98
2022-08-16T14:25:26.829Z,61.11
2022-08-16T14:27:55.096Z,60.81
2022-08-16T14:30:27.408Z,60.99
2022-08-16T14:32:55.403Z,61.04
2022-08-16T14:35:48.417Z,60.75
2022-08-16T14:38:23.869Z,60.74
2022-08-16T14:40:55.426Z,60.78
2022-08-16T14:43:29.685Z,60.78
2022-08-16T14:45:58.461Z,60.63
2022-08-16T14:48:31.346Z,61.00
2022-08-16T14:50:59.103Z,60.76
2022-08-16T14:53:27.967Z,60.70
2022-08-16T14:55:57.527Z,60.80
2022-08-16T14:58:34.881Z,60.70
2022-08-16T15:01:10.188Z,60.58
2022-08-16T15:03:44.791Z,60.64
2022-08-16T15:06:16.409Z,60.51
2022-08-16T15:08:45.976Z,60.58
2022-08-16T15:11:14.733Z,60.72
2022-08-16T15:13:42.748Z,60.69
2022-08-16T15:16:10.511Z,60.39
2022-08-16T15:18:39.289Z,60.32
2022-08-16T15:21:09.557Z,60.51
2022-08-16T15:23:40.374Z,60.47
2022-08-16T15:26:18.875Z,60.54
2022-08-16T15:28:59.544Z,60.43
2022-08-16T15:31:28.354Z,60.48
2022-08-16T15:33:58.210Z,60.40
2022-08-16T15:36:26.877Z,60.58
2022-08-16T15:39:05.867Z,60.66
2022-08-16T15:41:46.869Z,60.47
2022-08-16T15:44:22.364Z,60.40
2022-08-16T15:47:02.463Z,60.62
2022-08-16T15:49:37.330Z,60.62
2022-08-16T15:52:14.970Z,60.55
2022-08-16T15:54:55.381Z,60.65
2022-08-16T15:57:27.007Z,60.57
2022-08-16T16:00:04.328Z,60.73
2022-08-16T16:02:45.217Z,60.71
2022-08-16T16:05:14.165Z,60.78
2022-08-16T16:07:55.630Z,60.88
2022-08-16T16:10:30.071Z,60.78
2022-08-16T16:13:05.382Z,60.80
2022-08-16T16:15:46.276Z,60.94
2022-08-16T16:18:17.195Z,60.73
2022-08-16T16:20:52.440Z,60.80
2022-08-16T16:23:25.771Z,60.84
2022-08-16T16:25:56.671Z,60.78
2022-08-16T16:29:05.958Z,60.74
2022-08-16T16:31:20.446Z,60.75
2022-08-16T16:33:56.414Z,60.78
2022-08-16T16:36:29.312Z,60.76
2022-08-16T16:39:00.806Z,60.79
2022-08-16T16:41:30.602Z,60.80
2022-08-16T16:44:01.499Z,60.77
2022-08-16T16:46:42.691Z,60.77
2022-08-16T16:49:14.689Z,60.85
2022-08-16T16:51:49.763Z,60.95
2022-08-16T16:54:25.580Z,60.93
2022-08-16T16:56:58.591Z,60.93
2022-08-16T16:59:28.797Z,60.92
2022-08-16T17:02:41.144Z,61.02
2022-08-16T17:04:49.107Z,60.94
2022-08-16T17:07:24.122Z,60.93
2022-08-16T17:09:53.793Z,61.00
2022-08-16T17:12:25.313Z,61.02
2022-08-16T17:15:12.655Z,60.98
2022-08-16T17:18:00.434Z,61.03
2022-08-16T17:20:30.263Z,60.95
2022-08-16T17:22:58.858Z,61.14
2022-08-16T17:25:36.304Z,60.99
2022-08-16T17:28:57.950Z,61.25
2022-08-16T17:30:54.875Z,61.23
2022-08-16T17:33:23.616Z,61.23
2022-08-16T17:35:55.625Z,61.28
2022-08-16T17:38:38.781Z,61.25
2022-08-16T17:41:16.321Z,61.34
2022-08-16T17:43:45.447Z,61.29
2022-08-16T17:46:50.233Z,61.41
2022-08-16T17:49:05.740Z,61.40
2022-08-16T17:51:34.943Z,61.46
2022-08-16T17:54:03.766Z,61.33
2022-08-16T17:56:31.634Z,61.47
2022-08-16T17:58:59.424Z,61.63
2022-08-16T18:01:28.586Z,61.52
2022-08-16T18:04:08.869Z,61.65
2022-08-16T18:06:40.193Z,61.53
2022-08-16T18:09:10.280Z,61.72
2022-08-16T18:11:43.088Z,61.83
2022-08-16T18:14:15.812Z,61.91
2022-08-16T18:16:45.678Z,61.89
2022-08-16T18:19:16.579Z,61.86
2022-08-16T18:22:03.448Z,62.11
2022-08-16T18:24:31.241Z,61.98
2022-08-16T18:27:24.960Z,61.97
2022-08-16T18:29:51.192Z,62.02
2022-08-16T18:32:24.925Z,62.19
2022-08-16T18:34:55.050Z,62.33
2022-08-16T18:37:24.512Z,62.30
2022-08-16T18:39:52.835Z,62.36
2022-08-16T18:42:21.688Z,62.41
2022-08-16T18:44:49.437Z,62.57
2022-08-16T18:47:17.225Z,62.60
2022-08-16T18:49:45.045Z,62.57
2022-08-16T18:52:25.437Z,62.63
2022-08-16T18:55:01.883Z,62.71
2022-08-16T18:57:43.299Z,62.68
2022-08-16T19:00:15.289Z,62.88
2022-08-16T19:02:59.001Z,62.87
2022-08-16T19:05:31.105Z,62.86
2022-08-16T19:08:02.888Z,62.75
2022-08-16T19:10:33.485Z,62.95
2022-08-16T19:13:10.499Z,63.19
2022-08-16T19:15:40.515Z,63.16
2022-08-16T19:18:10.459Z,63.16
2022-08-16T19:20:40.243Z,63.37
2022-08-16T19:23:19.224Z,63.42
2022-08-16T19:25:52.765Z,63.48
2022-08-16T19:28:51.118Z,63.53
2022-08-16T19:31:29.353Z,63.63
2022-08-16T19:34:00.629Z,63.74
2022-08-16T19:36:37.594Z,63.87
2022-08-16T19:39:15.246Z,63.96
2022-08-16T19:41:53.460Z,63.98
2022-08-16T19:44:23.301Z,64.00
2022-08-16T19:46:51.867Z,64.10
2022-08-16T19:49:19.664Z,63.98
2022-08-16T19:51:49.222Z,64.12
2022-08-16T19:54:18.243Z,64.10
2022-08-16T19:56:46.152Z,64.47
2022-08-16T19:59:20.337Z,64.42
2022-08-16T20:01:53.082Z,64.33
2022-08-16T20:04:23.635Z,64.64
2022-08-16T20:06:54.057Z,64.52
2022-08-16T20:09:24.904Z,64.68
2022-08-16T20:11:54.742Z,64.81
2022-08-16T20:14:26.488Z,64.58
2022-08-16T20:16:58.869Z,64.90
2022-08-16T20:19:33.443Z,64.97
2022-08-16T20:22:52.474Z,65.08
2022-08-16T20:25:30.272Z,65.00
2022-08-16T20:28:00.862Z,65.29
2022-08-16T20:30:29.816Z,65.11
2022-08-16T20:32:58.235Z,65.42
2022-08-16T20:35:29.385Z,65.24
2022-08-16T20:37:58.062Z,65.30
2022-08-16T20:40:34.470Z,65.58
2022-08-16T20:43:12.555Z,65.59
2022-08-16T20:45:45.607Z,65.66
2022-08-16T20:48:14.804Z,65.68
2022-08-16T20:50:45.181Z,65.62
2022-08-16T20:53:14.588Z,65.78
2022-08-16T20:55:44.676Z,65.90
2022-08-16T20:58:14.080Z,66.00
2022-08-16T21:00:45.499Z,66.01
2022-08-16T21:03:15.945Z,65.88
2022-08-16T21:05:48.327Z,66.13
2022-08-16T21:08:50.263Z,66.20
2022-08-16T21:11:08.227Z,66.20
2022-08-16T21:13:40.564Z,66.20
2022-08-16T21:16:11.407Z,66.45
2022-08-16T21:18:39.236Z,66.33
2022-08-16T21:21:07.267Z,66.12
2022-08-16T21:23:36.665Z,66.45
2022-08-16T21:26:10.749Z,66.55
2022-08-16T21:28:43.221Z,66.49
2022-08-16T21:31:15.109Z,66.37
2022-08-16T21:33:55.070Z,66.67
2022-08-16T21:36:35.806Z,66.52
2022-08-16T21:39:08.307Z,66.79
2022-08-16T21:41:40.264Z,66.75
2022-08-16T21:44:08.381Z,66.82
2022-08-16T21:46:38.049Z,66.72
2022-08-16T21:49:06.737Z,66.74
2022-08-16T21:51:37.474Z,66.70
2022-08-16T21:54:06.072Z,67.00
2022-08-16T21:56:33.817Z,66.98
2022-08-16T21:59:01.926Z,66.86
2022-08-16T22:01:31.962Z,66.91
2022-08-16T22:04:35.566Z,67.27
2022-08-16T22:06:52.121Z,67.24
2022-08-16T22:09:21.884Z,67.37
2022-08-16T22:11:51.460Z,67.15
2022-08-16T22:14:20.314Z,67.34
2022-08-16T22:16:48.630Z,67.33
2022-08-16T22:19:18.508Z,67.40
2022-08-16T22:21:48.714Z,67.40
2022-08-16T22:24:16.568Z,67.50
2022-08-16T22:26:46.506Z,67.35
2022-08-16T22:29:17.393Z,67.54
2022-08-16T22:31:47.776Z,67.49
2022-08-16T22:34:18.316Z,67.49
2022-08-16T22:36:46.287Z,67.53
2022-08-16T22:39:14.894Z,67.55
2022-08-16T22:41:46.069Z,67.82
2022-08-16T22:44:15.833Z,67.94
2022-08-16T22:46:46.085Z,67.76
2022-08-16T22:49:16.964Z,68.00
2022-08-16T22:51:44.800Z,68.12
2022-08-16T22:54:48.142Z,67.99
2022-08-16T22:57:04.528Z,68.20
2022-08-16T22:59:34.675Z,67.97
2022-08-16T23:02:05.930Z,68.27
2022-08-16T23:04:34.053Z,68.39
2022-08-16T23:07:03.672Z,68.14
2022-08-16T23:09:33.896Z,68.06
2022-08-16T23:12:08.888Z,68.39
2022-08-16T23:14:36.978Z,68.39
2022-08-16T23:17:07.625Z,68.39
2022-08-16T23:19:35.433Z,68.21
2022-08-16T23:22:04.789Z,68.36
2022-08-16T23:24:37.205Z,68.59
2022-08-16T23:27:21.662Z,68.72
2022-08-16T23:29:49.639Z,68.46
2022-08-16T23:32:19.704Z,68.79
2022-08-16T23:34:50.099Z,68.61
2022-08-16T23:37:23.253Z,68.67
2022-08-16T23:39:54.539Z,68.80
2022-08-16T23:42:52.401Z,68.86
2022-08-16T23:45:11.544Z,68.78
2022-08-16T23:47:43.764Z,69.05
2022-08-16T23:50:14.305Z,68.98
2022-08-16T23:53:13.868Z,68.97
2022-08-16T23:55:49.108Z,69.09
2022-08-16T23:58:22.522Z,69.09
